Time;durP1;ratioP1;P1;durP2;ratioP2;P2;SDS_P1;SDS_P2;PMS_P1;PMS_P2;Temp;Humidity;BMP_temperature;BMP_pressure;BME280_temperature;BME280_humidity;BME280_pressure;Samples;Min_cycle;Max_cycle;Signal;HPM_P1;HPM_P2
2021/12/30 00:01:21;;;;;;;63.90;28.55;;;;;;;3.42;79.09;99884.09;5093318;28;20077;-53
2021/12/30 00:03:48;;;;;;;60.05;29.15;;;;;;;3.44;79.02;99877.19;5083355;28;20174;-54
2021/12/30 00:06:17;;;;;;;64.22;28.13;;;;;;;3.43;78.94;99880.63;5073302;28;20377;-53
2021/12/30 00:08:43;;;;;;;61.47;27.77;;;;;;;3.47;78.93;99882.34;5093140;28;20067;-55
2021/12/30 00:11:09;;;;;;;55.97;25.45;;;;;;;3.51;78.64;99881.50;5073437;28;20085;-54
2021/12/30 00:13:35;;;;;;;61.35;29.05;;;;;;;3.52;78.43;99874.56;5073110;28;20040;-56
2021/12/30 00:16:01;;;;;;;60.00;26.95;;;;;;;3.44;78.75;99879.78;5082370;28;20032;-52
2021/12/30 00:18:27;;;;;;;74.15;33.42;;;;;;;3.45;78.71;99878.91;5073173;28;20536;-54
2021/12/30 00:20:53;;;;;;;70.38;32.72;;;;;;;3.48;78.68;99867.66;5072867;28;20506;-55
2021/12/30 00:23:19;;;;;;;62.38;28.50;;;;;;;3.45;78.65;99868.50;5089781;28;20071;-53
2021/12/30 00:25:45;;;;;;;68.38;30.50;;;;;;;3.48;78.75;99873.72;5079644;28;20098;-52
2021/12/30 00:28:21;;;;;;;67.82;28.42;;;;;;;3.48;78.78;99873.72;5073222;28;20040;-54
2021/12/30 00:30:48;;;;;;;56.83;26.38;;;;;;;3.55;78.36;99879.75;5093113;28;20123;-54
2021/12/30 00:33:15;;;;;;;71.47;29.80;;;;;;;3.57;78.40;99886.66;5080179;28;20052;-52
2021/12/30 00:35:40;;;;;;;80.93;35.90;;;;;;;3.60;78.15;99886.69;5072997;28;20055;-54
2021/12/30 00:38:07;;;;;;;67.93;30.02;;;;;;;3.62;78.02;99891.84;5072850;28;20468;-56
2021/12/30 00:40:33;;;;;;;70.93;30.92;;;;;;;3.64;77.92;99885.81;5073145;28;20039;-55
2021/12/30 00:43:02;;;;;;;66.30;30.80;;;;;;;3.63;77.72;99878.00;5076891;28;20115;-51
2021/12/30 00:45:29;;;;;;;61.80;28.13;;;;;;;3.64;77.75;99891.00;5093244;28;20036;-54
2021/12/30 00:47:55;;;;;;;73.97;32.42;;;;;;;3.61;77.82;99891.00;5095582;28;20066;-52
2021/12/30 00:50:21;;;;;;;63.78;29.42;;;;;;;3.59;77.86;99895.34;5091399;28;20040;-51
2021/12/30 00:52:47;;;;;;;60.58;28.77;;;;;;;3.60;77.96;99896.22;5076427;28;21946;-52
2021/12/30 00:55:12;;;;;;;73.40;32.97;;;;;;;3.63;77.86;99894.47;5076734;28;20067;-52
2021/12/30 00:57:38;;;;;;;71.00;30.23;;;;;;;3.66;77.56;99907.44;5077025;28;20043;-54
2021/12/30 01:00:07;;;;;;;72.95;33.05;;;;;;;3.70;77.62;99903.09;5086212;28;20075;-57
2021/12/30 01:02:33;;;;;;;68.80;30.83;;;;;;;3.73;77.60;99907.44;5083720;28;20027;-55
2021/12/30 01:04:58;;;;;;;71.60;31.90;;;;;;;3.73;77.45;99907.44;5096236;28;20038;-51
2021/12/30 01:07:24;;;;;;;59.00;26.98;;;;;;;3.73;77.66;99908.31;5084716;28;20041;-52
2021/12/30 01:09:49;;;;;;;55.03;27.25;;;;;;;3.74;77.60;99912.63;5075540;28;20082;-55
2021/12/30 01:12:15;;;;;;;59.40;29.10;;;;;;;3.77;77.24;99927.38;5076392;28;20033;-55
2021/12/30 01:14:45;;;;;;;57.88;26.65;;;;;;;3.77;77.30;99927.38;5088921;28;20115;-52
2021/12/30 01:20:03;;;;;;;53.70;25.30;;;;;;;3.75;77.36;99913.50;5063596;28;20043;-57
2021/12/30 01:22:28;;;;;;;58.08;26.95;;;;;;;3.76;77.34;99915.25;5086529;28;20032;-52
2021/12/30 01:24:55;;;;;;;64.38;31.13;;;;;;;3.70;77.41;99922.16;5088457;28;20110;-52
2021/12/30 01:27:20;;;;;;;48.63;24.70;;;;;;;3.71;77.60;99920.44;5075868;28;20036;-55
2021/12/30 01:29:48;;;;;;;51.97;25.13;;;;;;;3.73;77.68;99915.25;5093380;28;20031;-52
2021/12/30 01:32:14;;;;;;;54.65;27.15;;;;;;;3.75;77.45;99908.28;5092921;28;20051;-53
2021/12/30 01:34:39;;;;;;;54.63;26.58;;;;;;;3.80;77.22;99906.56;5077950;28;20159;-52
2021/12/30 01:37:05;;;;;;;60.22;26.30;;;;;;;3.73;77.48;99900.50;5076960;28;20107;-52
2021/12/30 01:39:39;;;;;;;66.68;28.85;;;;;;;3.74;77.48;99906.56;5075763;28;20036;-53
2021/12/30 01:42:07;;;;;;;55.03;25.88;;;;;;;3.74;77.60;99911.75;5075893;28;20036;-52
2021/12/30 01:44:33;;;;;;;59.47;27.80;;;;;;;3.73;77.73;99915.25;5075692;28;20032;-54
2021/12/30 01:46:59;;;;;;;50.33;23.67;;;;;;;3.74;77.87;99914.38;5079849;28;20110;-54
2021/12/30 01:49:25;;;;;;;55.35;26.27;;;;;;;3.77;77.85;99922.16;5095270;28;20040;-52
2021/12/30 01:51:53;;;;;;;50.78;25.23;;;;;;;3.80;77.63;99916.97;5095843;28;20028;-53
2021/12/30 01:54:18;;;;;;;61.92;28.00;;;;;;;3.82;77.52;99915.22;5093180;28;20066;-55
2021/12/30 01:56:45;;;;;;;60.88;29.17;;;;;;;3.76;77.63;99917.84;5095208;28;20048;-55
2021/12/30 01:59:11;;;;;;;71.18;33.40;;;;;;;3.64;78.02;99916.13;5094846;28;20031;-51
2021/12/30 02:01:36;;;;;;;65.43;30.92;;;;;;;3.63;78.36;99912.66;5095675;28;20047;-52
2021/12/30 02:04:02;;;;;;;54.17;25.10;;;;;;;3.61;78.79;99905.72;5096011;28;20032;-53
2021/12/30 02:06:28;;;;;;;55.50;27.38;;;;;;;3.62;78.64;99907.44;5091392;28;20032;-55
2021/12/30 02:08:54;;;;;;;59.70;29.58;;;;;;;3.65;78.52;99913.50;5094137;28;20471;-52
2021/12/30 02:11:20;;;;;;;53.75;26.80;;;;;;;3.60;78.54;99909.19;5090953;28;20024;-53
2021/12/30 02:13:49;;;;;;;54.15;25.75;;;;;;;3.59;78.65;99920.44;5074945;28;20498;-54
2021/12/30 02:16:17;;;;;;;55.40;25.15;;;;;;;3.61;78.82;99926.50;5091970;28;20107;-55
2021/12/30 02:18:42;;;;;;;48.97;24.90;;;;;;;3.64;78.82;99937.78;5084724;28;20036;-51
2021/12/30 02:21:08;;;;;;;52.15;26.15;;;;;;;3.61;78.76;99931.69;5074940;28;20031;-53
2021/12/30 02:23:36;;;;;;;57.55;26.30;;;;;;;3.63;79.06;99932.56;5074896;28;20044;-52
2021/12/30 02:26:08;;;;;;;49.90;25.30;;;;;;;3.64;78.79;99937.78;5074985;28;20111;-55
2021/12/30 02:28:36;;;;;;;52.80;25.65;;;;;;;3.63;78.64;99924.75;5074697;28;20028;-52
2021/12/30 02:31:14;;;;;;;45.22;23.45;;;;;;;3.59;79.18;99917.84;5079794;28;20148;-52
2021/12/30 02:33:40;;;;;;;46.03;23.40;;;;;;;3.60;79.10;99914.41;5095028;28;20106;-52
2021/12/30 02:36:06;;;;;;;47.70;24.75;;;;;;;3.61;78.96;99916.97;5075324;28;20467;-52
2021/12/30 02:38:31;;;;;;;55.00;26.60;;;;;;;3.62;79.07;99900.50;5074786;28;20039;-55
2021/12/30 02:40:59;;;;;;;52.50;24.70;;;;;;;3.65;78.92;99903.13;5094566;28;20046;-53
2021/12/30 02:43:29;;;;;;;57.65;26.92;;;;;;;3.60;79.05;99911.78;5094827;28;20055;-52
2021/12/30 02:45:56;;;;;;;47.63;23.95;;;;;;;3.61;79.19;99911.78;5094625;28;20426;-52
2021/12/30 02:48:24;;;;;;;45.65;23.38;;;;;;;3.65;79.21;99903.13;5094640;28;20468;-52
2021/12/30 02:50:53;;;;;;;50.05;25.15;;;;;;;3.68;78.90;99903.13;5085628;28;20476;-53
2021/12/30 02:53:20;;;;;;;50.70;24.48;;;;;;;3.69;78.92;99914.38;5074110;28;20086;-52
2021/12/30 02:55:46;;;;;;;47.22;23.23;;;;;;;3.64;79.03;99919.59;5074028;28;20480;-55
2021/12/30 02:58:12;;;;;;;48.33;24.33;;;;;;;3.67;79.18;99919.59;5076379;28;20119;-54
2021/12/30 03:00:38;;;;;;;57.03;28.65;;;;;;;3.55;79.70;99932.59;5094350;28;20064;-56
2021/12/30 03:03:05;;;;;;;58.80;27.80;;;;;;;3.47;79.73;99934.28;5094449;28;20032;-54
2021/12/30 03:05:31;;;;;;;52.80;26.08;;;;;;;3.44;80.52;99932.56;5080380;28;20063;-51
2021/12/30 03:07:56;;;;;;;53.40;24.70;;;;;;;3.42;80.45;99934.28;5077228;28;20399;-52
2021/12/30 03:10:24;;;;;;;54.42;26.45;;;;;;;3.45;80.55;99936.03;5091447;28;20032;-56
2021/12/30 03:12:55;;;;;;;55.28;26.95;;;;;;;3.42;80.63;99936.88;5094218;28;20107;-52
2021/12/30 03:15:21;;;;;;;53.15;27.52;;;;;;;3.49;80.41;99945.56;5094213;28;20464;-52
2021/12/30 03:17:46;;;;;;;53.00;26.45;;;;;;;3.53;80.27;99954.22;5094239;28;20055;-52
2021/12/30 03:20:12;;;;;;;55.10;25.73;;;;;;;3.54;80.07;99946.41;5094021;28;20486;-52
2021/12/30 03:22:38;;;;;;;60.33;29.45;;;;;;;3.57;79.89;99930.84;5094112;28;20044;-52
2021/12/30 03:25:06;;;;;;;58.88;28.13;;;;;;;3.60;79.70;99930.84;5073474;28;20028;-51
2021/12/30 03:27:31;;;;;;;48.53;24.42;;;;;;;3.60;79.53;99925.66;5073141;28;20487;-53
2021/12/30 03:29:57;;;;;;;53.80;26.83;;;;;;;3.62;79.58;99930.84;5073794;28;20224;-52
2021/12/30 03:32:22;;;;;;;52.28;25.13;;;;;;;3.59;79.87;99934.31;5073880;28;20545;-53
2021/12/30 03:34:48;;;;;;;52.00;26.15;;;;;;;3.60;79.65;99936.03;5073501;28;20032;-56
2021/12/30 03:37:13;;;;;;;51.88;26.40;;;;;;;3.61;79.76;99944.69;5075730;28;20037;-51
2021/12/30 03:39:40;;;;;;;54.33;25.95;;;;;;;3.65;79.76;99938.63;5093945;28;20538;-53
2021/12/30 03:42:06;;;;;;;51.33;26.80;;;;;;;3.70;79.37;99937.75;5093992;28;20043;-54
2021/12/30 03:44:31;;;;;;;49.38;24.90;;;;;;;3.76;79.13;99938.63;5093860;28;20036;-56
2021/12/30 03:46:57;;;;;;;44.88;23.90;;;;;;;3.81;79.02;99923.88;5093748;28;20032;-53
2021/12/30 03:49:22;;;;;;;53.72;25.80;;;;;;;3.84;78.75;99924.75;5093642;28;20459;-53
2021/12/30 03:51:50;;;;;;;61.55;29.05;;;;;;;3.87;78.43;99927.34;5091600;28;20032;-54
2021/12/30 03:54:15;;;;;;;43.60;23.65;;;;;;;3.85;78.67;99936.00;5091356;28;20045;-54
2021/12/30 03:56:41;;;;;;;48.60;25.45;;;;;;;3.88;78.58;99936.88;5093651;28;20028;-53
2021/12/30 03:59:06;;;;;;;49.22;25.30;;;;;;;3.92;78.59;99953.34;5076506;28;20083;-52
2021/12/30 04:01:32;;;;;;;54.05;28.30;;;;;;;3.88;78.49;99957.66;5072970;28;20037;-54
2021/12/30 04:03:58;;;;;;;48.30;24.90;;;;;;;3.81;78.71;99960.28;5073243;28;20476;-53
2021/12/30 04:06:25;;;;;;;53.03;27.83;;;;;;;3.77;79.12;99968.94;5073146;28;20039;-52
2021/12/30 04:08:51;;;;;;;49.17;25.90;;;;;;;3.68;79.62;99960.28;5073473;28;20032;-50
2021/12/30 04:11:16;;;;;;;53.10;29.08;;;;;;;3.68;79.79;99960.28;5072478;28;20043;-53
2021/12/30 04:13:42;;;;;;;50.17;26.52;;;;;;;3.75;79.51;99949.88;5073267;28;20040;-54
2021/12/30 04:16:07;;;;;;;52.60;28.30;;;;;;;3.80;79.27;99941.22;5073325;28;20488;-54
2021/12/30 04:18:33;;;;;;;49.53;26.20;;;;;;;3.82;79.23;99943.81;5073320;28;20024;-52
2021/12/30 04:20:59;;;;;;;46.63;26.00;;;;;;;3.86;79.01;99933.41;5071823;28;20043;-53
2021/12/30 04:23:25;;;;;;;41.58;22.50;;;;;;;3.84;78.87;99944.69;5087857;28;20044;-51
2021/12/30 04:25:50;;;;;;;48.45;25.17;;;;;;;3.88;78.98;99949.00;5096977;28;20039;-54
2021/12/30 04:28:16;;;;;;;53.83;27.65;;;;;;;3.91;78.78;99948.97;5097146;28;20032;-51
2021/12/30 04:30:42;;;;;;;46.97;24.45;;;;;;;3.89;78.82;99949.00;5097289;28;20040;-52
2021/12/30 04:33:07;;;;;;;47.80;24.40;;;;;;;3.90;78.63;99955.06;5097292;28;20085;-54
2021/12/30 04:35:33;;;;;;;48.08;23.52;;;;;;;3.88;78.88;99956.81;5077484;28;20036;-52
2021/12/30 04:37:59;;;;;;;48.67;24.35;;;;;;;3.87;78.81;99961.16;5089024;28;20036;-54
2021/12/30 04:40:27;;;;;;;42.42;22.65;;;;;;;3.87;79.03;99955.94;5097219;28;20120;-53
2021/12/30 04:42:53;;;;;;;44.88;23.63;;;;;;;3.91;78.85;99960.28;5097075;28;20044;-54
2021/12/30 04:45:19;;;;;;;44.50;24.55;;;;;;;3.94;78.74;99967.19;5093776;28;20081;-55
2021/12/30 04:47:44;;;;;;;45.72;23.70;;;;;;;3.98;78.52;99968.91;5090299;28;20484;-53
2021/12/30 04:50:12;;;;;;;52.67;25.50;;;;;;;3.91;78.91;99969.78;5075995;28;20040;-52
2021/12/30 04:52:38;;;;;;;48.25;24.23;;;;;;;3.94;78.80;99967.19;5076637;28;20040;-52
2021/12/30 04:55:05;;;;;;;43.50;23.25;;;;;;;3.96;78.68;99968.06;5082779;28;20028;-54
2021/12/30 04:57:30;;;;;;;42.83;22.77;;;;;;;4.00;78.72;99955.94;5096890;28;20043;-53
2021/12/30 04:59:56;;;;;;;44.70;23.55;;;;;;;4.04;78.52;99953.31;5096755;28;20024;-54
2021/12/30 05:02:25;;;;;;;41.00;21.88;;;;;;;4.04;78.31;99961.13;5096613;28;20028;-52
2021/12/30 05:04:50;;;;;;;44.58;24.38;;;;;;;4.05;78.35;99965.44;5096578;28;20081;-56
2021/12/30 05:07:16;;;;;;;48.92;26.48;;;;;;;3.98;78.50;99976.72;5096768;28;20417;-52
2021/12/30 05:09:41;;;;;;;54.88;28.88;;;;;;;3.86;79.08;99979.31;5081872;28;20032;-55
2021/12/30 05:12:07;;;;;;;50.97;26.88;;;;;;;3.68;79.75;99975.88;5075221;28;20112;-53
2021/12/30 05:14:32;;;;;;;45.55;23.88;;;;;;;3.75;80.02;99968.06;5076171;28;20030;-51
2021/12/30 05:17:02;;;;;;;50.00;25.42;;;;;;;3.74;80.11;99962.00;5076455;28;20467;-53
2021/12/30 05:19:28;;;;;;;50.88;26.85;;;;;;;3.80;79.98;99962.00;5076296;28;20048;-53
2021/12/30 05:21:54;;;;;;;47.50;24.23;;;;;;;3.85;79.73;99951.59;5076372;28;20028;-53
2021/12/30 05:24:19;;;;;;;44.15;23.05;;;;;;;3.85;79.68;99949.00;5095741;28;20131;-55
2021/12/30 05:26:45;;;;;;;47.67;26.48;;;;;;;3.92;79.34;99954.19;5096205;28;20070;-51
2021/12/30 05:29:10;;;;;;;46.58;23.65;;;;;;;3.89;79.35;99953.34;5094187;28;20115;-51
2021/12/30 05:31:35;;;;;;;39.42;20.75;;;;;;;3.94;79.29;99956.78;5096102;28;20047;-53
2021/12/30 05:34:01;;;;;;;57.65;28.50;;;;;;;4.01;79.00;99955.91;5093879;28;20122;-53
2021/12/30 05:36:28;;;;;;;45.70;24.00;;;;;;;4.03;78.84;99949.00;5096163;28;20827;-51
2021/12/30 05:38:53;;;;;;;49.78;26.90;;;;;;;4.08;78.69;99947.25;5093514;28;20040;-51
2021/12/30 05:41:18;;;;;;;52.95;26.00;;;;;;;4.12;78.50;99958.50;5095788;28;20077;-53
2021/12/30 05:43:44;;;;;;;45.55;25.30;;;;;;;4.11;78.47;99960.25;5095555;28;20036;-54
2021/12/30 05:46:09;;;;;;;41.10;21.60;;;;;;;4.12;78.38;99961.97;5095833;28;20035;-54
2021/12/30 05:48:35;;;;;;;44.47;22.77;;;;;;;4.15;78.32;99967.16;5095728;28;20071;-54
2021/12/30 05:51:01;;;;;;;47.10;24.00;;;;;;;4.17;78.24;99961.94;5096175;28;20069;-51
2021/12/30 05:53:28;;;;;;;48.42;25.73;;;;;;;4.09;78.54;99967.16;5094132;28;20035;-51
2021/12/30 05:55:54;;;;;;;40.75;23.15;;;;;;;4.02;78.97;99965.44;5095499;28;20115;-51
2021/12/30 05:58:19;;;;;;;48.10;25.67;;;;;;;4.05;79.00;99962.84;5095380;28;20471;-52
2021/12/30 06:00:47;;;;;;;46.33;22.98;;;;;;;4.07;78.98;99963.72;5090360;28;20111;-54
2021/12/30 06:03:13;;;;;;;41.67;23.85;;;;;;;4.05;79.25;99973.22;5095401;28;20040;-53
2021/12/30 06:05:38;;;;;;;40.97;22.30;;;;;;;3.98;79.63;99973.25;5095389;28;20024;-52
2021/12/30 06:08:04;;;;;;;39.67;20.45;;;;;;;3.96;79.72;99965.47;5095331;28;20047;-50
2021/12/30 06:10:29;;;;;;;38.25;22.20;;;;;;;3.99;79.78;99965.47;5095726;28;20032;-54
2021/12/30 06:12:55;;;;;;;41.92;21.95;;;;;;;4.04;79.67;99968.91;5095358;28;20035;-54
2021/12/30 06:15:20;;;;;;;38.45;22.17;;;;;;;4.08;79.38;99978.44;5087122;28;20411;-52
2021/12/30 06:17:46;;;;;;;48.38;25.88;;;;;;;4.04;79.83;99989.72;5072949;28;20122;-52
2021/12/30 06:20:13;;;;;;;42.53;22.83;;;;;;;3.99;80.13;99985.38;5075149;28;20455;-52
2021/12/30 06:22:43;;;;;;;47.17;24.23;;;;;;;3.97;80.36;99984.53;5074909;28;20099;-53
2021/12/30 06:25:10;;;;;;;39.95;22.15;;;;;;;4.00;80.07;99993.19;5084818;28;20111;-51
2021/12/30 06:27:35;;;;;;;40.33;22.15;;;;;;;4.08;79.96;99987.97;5094953;28;20089;-53
2021/12/30 06:30:02;;;;;;;41.55;22.58;;;;;;;4.07;79.90;99984.50;5075681;28;20052;-54
2021/12/30 06:32:27;;;;;;;40.42;20.95;;;;;;;4.04;80.19;99994.06;5074783;28;20056;-50
2021/12/30 06:34:53;;;;;;;37.47;21.20;;;;;;;3.99;80.69;99990.56;5074720;28;20105;-52
2021/12/30 06:37:18;;;;;;;40.13;22.27;;;;;;;4.02;80.52;99999.22;5074460;28;20057;-56
2021/12/30 06:39:44;;;;;;;42.25;21.80;;;;;;;4.03;80.60;99998.38;5088370;28;20380;-51
2021/12/30 06:42:09;;;;;;;43.53;22.77;;;;;;;4.01;80.82;99989.72;5094788;28;20056;-54
2021/12/30 06:44:34;;;;;;;42.50;21.98;;;;;;;4.07;80.66;99984.50;5094636;28;20059;-53
2021/12/30 06:47:02;;;;;;;42.70;22.77;;;;;;;4.07;80.57;99997.50;5093472;28;20064;-56
2021/12/30 06:49:35;;;;;;;37.70;19.08;;;;;;;4.08;80.57;99985.38;5083631;28;20040;-51
2021/12/30 06:52:00;;;;;;;40.45;21.10;;;;;;;4.11;80.50;99977.53;5074251;28;20024;-52
2021/12/30 06:54:26;;;;;;;34.58;18.90;;;;;;;4.12;80.48;99987.97;5073722;28;20071;-52
2021/12/30 06:56:55;;;;;;;36.50;18.77;;;;;;;4.10;80.76;99994.88;5074045;28;20039;-52
2021/12/30 06:59:21;;;;;;;38.13;20.30;;;;;;;4.15;80.58;99997.50;5073685;28;20167;-54
2021/12/30 07:01:46;;;;;;;36.50;20.27;;;;;;;4.13;80.58;100004.44;5076528;28;20116;-55
2021/12/30 07:04:11;;;;;;;35.72;19.08;;;;;;;4.11;80.97;100006.16;5084256;28;20489;-54
2021/12/30 07:06:37;;;;;;;40.70;21.50;;;;;;;4.17;80.78;100003.56;5094716;28;20115;-53
2021/12/30 07:09:03;;;;;;;37.28;20.08;;;;;;;4.16;80.90;100010.50;5091808;28;20032;-51
2021/12/30 07:11:28;;;;;;;41.42;22.50;;;;;;;4.16;80.90;100013.09;5093549;28;20368;-51
2021/12/30 07:13:54;;;;;;;35.72;20.10;;;;;;;4.16;81.05;100023.50;5092995;28;20040;-52
2021/12/30 07:16:19;;;;;;;38.00;19.95;;;;;;;4.21;81.10;100020.88;5085227;28;20037;-53
2021/12/30 07:18:44;;;;;;;41.85;20.55;;;;;;;4.24;80.94;100033.03;5074336;28;20569;-53
2021/12/30 07:21:10;;;;;;;42.55;21.13;;;;;;;4.31;80.59;100032.13;5073772;28;20028;-51
2021/12/30 07:23:35;;;;;;;38.58;20.85;;;;;;;4.28;80.78;100030.41;5075560;28;20492;-54
2021/12/30 07:26:01;;;;;;;43.58;22.00;;;;;;;4.16;81.48;100031.28;5080477;28;20028;-53
2021/12/30 07:28:26;;;;;;;38.30;21.08;;;;;;;4.18;81.64;100034.75;5079620;28;20116;-55
2021/12/30 07:30:51;;;;;;;39.25;22.63;;;;;;;4.24;81.51;100036.50;5088485;28;20036;-52
2021/12/30 07:33:17;;;;;;;32.85;17.63;;;;;;;4.29;81.39;100041.69;5088102;28;20127;-51
2021/12/30 07:35:43;;;;;;;41.85;22.65;;;;;;;4.34;81.07;100040.78;5083402;28;20051;-55
2021/12/30 07:38:09;;;;;;;34.15;20.10;;;;;;;4.39;80.81;100040.81;5075492;28;20033;-54
2021/12/30 07:40:34;;;;;;;37.95;21.38;;;;;;;4.46;80.45;100042.50;5081689;28;20032;-52
2021/12/30 07:43:00;;;;;;;35.78;18.88;;;;;;;4.42;80.49;100041.63;5079702;28;20110;-53
2021/12/30 07:45:26;;;;;;;32.30;18.10;;;;;;;4.44;80.64;100026.03;5089649;28;20475;-51
2021/12/30 07:47:53;;;;;;;35.50;20.27;;;;;;;4.46;80.44;100039.91;5084161;28;20039;-52
2021/12/30 07:50:20;;;;;;;33.13;18.75;;;;;;;4.47;80.39;100039.06;5081186;28;20036;-50
2021/12/30 07:52:45;;;;;;;29.88;17.80;;;;;;;4.55;80.11;100039.91;5077419;28;20503;-52
2021/12/30 07:55:13;;;;;;;34.85;20.23;;;;;;;4.59;79.68;100036.41;5073009;28;20039;-51
2021/12/30 07:57:40;;;;;;;30.58;18.20;;;;;;;4.63;79.75;100042.50;5081499;28;20036;-52
2021/12/30 08:00:09;;;;;;;40.90;23.20;;;;;;;4.69;79.56;100030.31;5089481;28;20040;-54
2021/12/30 08:02:35;;;;;;;29.40;17.48;;;;;;;4.76;79.19;100028.56;5083650;28;20034;-54
2021/12/30 08:05:00;;;;;;;31.17;18.15;;;;;;;4.86;78.64;100034.56;5078200;28;20024;-52
2021/12/30 08:07:26;;;;;;;34.83;19.17;;;;;;;4.94;78.40;100022.38;5089994;28;20139;-51
2021/12/30 08:09:53;;;;;;;28.08;16.98;;;;;;;5.00;77.99;100027.59;5073097;28;20036;-51
2021/12/30 08:12:18;;;;;;;35.55;21.17;;;;;;;5.05;77.64;100031.03;5079730;28;20491;-54
2021/12/30 08:14:44;;;;;;;34.85;21.10;;;;;;;5.10;77.50;100034.47;5074295;28;20037;-55
2021/12/30 08:17:09;;;;;;;34.72;20.23;;;;;;;5.15;77.06;100022.31;5076377;28;20119;-55
2021/12/30 08:19:35;;;;;;;30.88;18.65;;;;;;;5.17;77.03;100015.34;5085161;28;20036;-53
2021/12/30 08:22:01;;;;;;;36.45;21.17;;;;;;;5.15;76.66;100006.69;5079883;28;20036;-54
2021/12/30 08:24:29;;;;;;;34.90;20.77;;;;;;;5.16;76.57;100011.00;5084907;28;20020;-54
2021/12/30 08:26:54;;;;;;;32.92;19.23;;;;;;;5.15;76.88;100001.47;5085141;28;20086;-52
2021/12/30 08:29:21;;;;;;;30.85;17.42;;;;;;;5.25;76.63;100004.00;5080988;28;20028;-52
2021/12/30 08:31:47;;;;;;;31.23;18.90;;;;;;;5.31;76.36;100009.19;5075534;28;20064;-53
2021/12/30 08:34:12;;;;;;;30.20;18.45;;;;;;;5.32;76.22;100003.97;5078918;28;20067;-54
2021/12/30 08:36:38;;;;;;;31.70;17.83;;;;;;;5.35;76.12;99996.13;5075768;28;20120;-52
2021/12/30 08:39:03;;;;;;;32.75;18.33;;;;;;;5.38;76.07;100000.44;5086517;28;20503;-54
2021/12/30 08:41:29;;;;;;;30.20;18.33;;;;;;;5.38;75.98;99992.63;5083922;28;20047;-54
2021/12/30 08:43:54;;;;;;;26.92;17.23;;;;;;;5.39;75.90;100010.88;5079210;28;20024;-53
2021/12/30 08:46:20;;;;;;;30.02;18.77;;;;;;;5.40;76.11;100016.94;5085522;28;20039;-55
2021/12/30 08:48:45;;;;;;;27.88;17.25;;;;;;;5.46;75.84;100010.81;5076231;28;20044;-54
2021/12/30 08:51:11;;;;;;;30.48;19.27;;;;;;;5.54;75.65;100002.06;5074538;28;20105;-52
2021/12/30 08:53:41;;;;;;;27.05;17.13;;;;;;;5.63;75.21;99998.56;5079598;28;20040;-55
2021/12/30 08:56:14;;;;;;;37.75;21.60;;;;;;;5.73;74.97;99996.72;5083779;28;20036;-51
2021/12/30 08:58:40;;;;;;;39.50;20.48;;;;;;;5.71;74.74;99991.53;5073373;28;20067;-55
2021/12/30 09:01:06;;;;;;;60.13;26.23;;;;;;;5.69;74.86;99988.91;5083938;28;20111;-55
2021/12/30 09:03:32;;;;;;;62.45;25.48;;;;;;;5.69;74.80;99988.91;5078375;28;20120;-53
2021/12/30 09:05:57;;;;;;;63.47;26.23;;;;;;;5.69;74.93;99994.13;5086719;28;20040;-53
2021/12/30 09:08:23;;;;;;;50.55;25.10;;;;;;;5.71;74.97;99998.50;5078860;28;20041;-54
2021/12/30 09:10:50;;;;;;;38.20;21.50;;;;;;;5.64;75.35;99997.66;5090658;28;20093;-52
2021/12/30 09:13:18;;;;;;;50.05;27.15;;;;;;;5.67;75.29;100001.13;5091534;28;20483;-53
2021/12/30 09:15:44;;;;;;;38.25;21.55;;;;;;;5.72;75.39;100002.81;5088499;28;20469;-53
2021/12/30 09:18:10;;;;;;;37.70;23.02;;;;;;;5.72;75.16;100002.81;5091252;28;20110;-56
2021/12/30 09:20:38;;;;;;;35.95;22.35;;;;;;;5.79;75.26;99994.09;5075314;28;20479;-52
2021/12/30 09:23:04;;;;;;;33.80;22.55;;;;;;;5.85;74.89;99991.41;5079802;28;20488;-54
2021/12/30 09:25:30;;;;;;;31.05;19.75;;;;;;;5.95;74.55;99979.19;5093588;28;20124;-54
2021/12/30 09:27:57;;;;;;;29.40;19.85;;;;;;;6.02;74.14;99971.28;5075890;28;20042;-54
2021/12/30 09:30:24;;;;;;;27.23;17.63;;;;;;;6.06;73.99;99967.75;5082884;28;20480;-51
2021/12/30 09:32:52;;;;;;;30.08;19.08;;;;;;;6.13;73.88;99964.22;5082651;28;20089;-54
2021/12/30 09:35:17;;;;;;;23.83;15.75;;;;;;;6.10;73.82;99960.78;5096118;28;20547;-54
2021/12/30 09:37:43;;;;;;;23.63;15.55;;;;;;;6.08;73.79;99952.97;5095619;28;20115;-55
2021/12/30 09:40:13;;;;;;;21.77;14.57;;;;;;;6.13;73.75;99959.00;5089823;28;20506;-55
2021/12/30 09:42:43;;;;;;;24.08;15.30;;;;;;;6.21;73.58;99955.44;5086610;28;20028;-53
2021/12/30 09:45:11;;;;;;;26.23;16.10;;;;;;;6.31;73.28;99959.72;5094132;28;20387;-54
2021/12/30 09:47:48;;;;;;;27.95;17.70;;;;;;;6.38;73.04;99954.41;5086633;28;20070;-53
2021/12/30 09:50:15;;;;;;;24.15;16.58;;;;;;;6.48;72.65;99956.91;5079697;28;20033;-53
2021/12/30 09:52:40;;;;;;;25.65;16.67;;;;;;;6.62;72.32;99962.81;5088708;28;20169;-54
2021/12/30 09:55:07;;;;;;;25.10;16.52;;;;;;;6.69;71.96;99961.00;5081379;28;20118;-51
2021/12/30 09:57:32;;;;;;;30.92;18.13;;;;;;;6.73;71.72;99958.31;5084662;28;20355;-51
2021/12/30 09:59:57;;;;;;;28.95;18.88;;;;;;;6.83;71.48;99956.47;5081862;28;20036;-53
2021/12/30 10:02:23;;;;;;;37.75;21.08;;;;;;;6.87;71.18;99953.78;5093190;28;20052;-54
2021/12/30 10:05:03;;;;;;;43.17;23.00;;;;;;;6.90;70.83;99942.41;5088077;28;20047;-54
2021/12/30 10:07:29;;;;;;;37.25;21.67;;;;;;;6.94;71.05;99949.31;5085875;28;20028;-54
2021/12/30 10:10:00;;;;;;;37.92;23.17;;;;;;;6.94;70.87;99956.31;5076162;28;20093;-52
2021/12/30 10:12:33;;;;;;;34.83;22.77;;;;;;;6.95;70.88;99961.53;5078016;28;20032;-54
2021/12/30 10:14:59;;;;;;;32.97;20.90;;;;;;;6.89;71.21;99962.44;5087384;28;20042;-55
2021/12/30 10:17:27;;;;;;;37.53;23.63;;;;;;;6.91;71.14;99963.31;5094885;28;20123;-52
2021/12/30 10:19:54;;;;;;;39.80;24.15;;;;;;;6.86;71.38;99954.69;5087118;28;20032;-54
2021/12/30 10:22:23;;;;;;;34.42;22.17;;;;;;;6.94;71.40;99966.75;5081327;28;20067;-52
2021/12/30 10:24:49;;;;;;;33.13;20.90;;;;;;;6.98;71.32;99966.72;5075056;28;20028;-52
2021/12/30 10:27:24;;;;;;;33.60;20.70;;;;;;;6.98;71.39;99960.59;5083906;28;20036;-52
2021/12/30 10:29:50;;;;;;;25.80;16.95;;;;;;;6.81;72.29;99963.44;5092929;28;20040;-51
2021/12/30 10:32:18;;;;;;;29.70;16.73;;;;;;;6.78;72.56;99961.75;5094420;28;20056;-53
2021/12/30 10:35:07;;;;;;;28.17;16.23;;;;;;;6.76;73.02;99957.44;5085634;28;20043;-53
2021/12/30 10:37:33;;;;;;;24.13;13.50;;;;;;;6.71;73.41;99960.09;5074665;28;20033;-53
2021/12/30 10:39:59;;;;;;;23.52;14.32;;;;;;;6.72;73.44;99953.13;5074257;28;20123;-54
2021/12/30 10:42:27;;;;;;;26.27;15.60;;;;;;;6.65;73.62;99958.41;5085658;28;20054;-55
2021/12/30 10:44:55;;;;;;;26.75;15.90;;;;;;;6.56;74.02;99948.09;5079408;28;20044;-54
2021/12/30 10:47:33;;;;;;;23.38;13.27;;;;;;;6.52;74.33;99946.41;5074498;28;20028;-51
2021/12/30 10:50:11;;;;;;;25.25;13.88;;;;;;;6.41;74.82;99949.13;5088500;28;20048;-55
2021/12/30 10:52:52;;;;;;;26.80;14.40;;;;;;;6.39;75.13;99955.25;5086395;28;20040;-54
2021/12/30 10:55:18;;;;;;;28.02;15.25;;;;;;;6.44;75.26;99948.25;5082722;28;20058;-55
2021/12/30 10:57:44;;;;;;;24.42;14.02;;;;;;;6.41;75.46;99948.25;5089791;28;20036;-55
2021/12/30 11:00:22;;;;;;;29.92;16.60;;;;;;;6.45;75.46;99946.50;5093849;28;20132;-55
2021/12/30 11:02:48;;;;;;;30.48;16.42;;;;;;;6.44;75.56;99937.81;5094392;28;20036;-52
2021/12/30 11:05:13;;;;;;;24.35;13.90;;;;;;;6.45;75.49;99934.28;5094210;28;20032;-55
2021/12/30 11:07:46;;;;;;;20.63;12.10;;;;;;;6.49;75.58;99928.16;5094167;28;20103;-51
2021/12/30 11:10:14;;;;;;;23.13;13.82;;;;;;;6.51;75.34;99934.25;5094386;28;20028;-54
2021/12/30 11:12:44;;;;;;;22.92;13.27;;;;;;;6.53;75.36;99931.59;5094718;28;20471;-53
2021/12/30 11:15:22;;;;;;;27.00;17.08;;;;;;;6.53;75.37;99942.91;5094031;28;20435;-54
2021/12/30 11:17:48;;;;;;;37.90;22.88;;;;;;;6.50;75.46;99948.16;5094062;28;20441;-54
2021/12/30 11:20:17;;;;;;;45.58;27.02;;;;;;;6.52;75.50;99940.31;5094186;28;20036;-51
2021/12/30 11:22:43;;;;;;;40.80;23.63;;;;;;;6.55;75.44;99930.72;5094109;28;20440;-54
2021/12/30 11:25:12;;;;;;;38.40;22.77;;;;;;;6.57;75.54;99926.31;5094330;28;20059;-53